createdAt,value
2019-03-10T00:28:27.634Z,6.65
2019-03-10T00:28:28.194Z,6.66
2019-03-10T00:28:28.794Z,6.68
2019-03-10T00:28:29.394Z,6.71
2019-03-10T00:28:29.994Z,6.65
2019-03-10T00:28:30.593Z,6.69
2019-03-10T00:28:31.192Z,6.65
2019-03-10T00:28:31.791Z,6.65
2019-03-10T00:29:25.277Z,6.63
2019-03-10T00:29:25.848Z,6.66
2019-03-10T00:29:26.448Z,6.68
2019-03-10T00:29:27.047Z,6.65
2019-03-10T00:29:27.646Z,6.69
2019-03-10T00:29:28.248Z,6.65
2019-03-10T00:29:28.849Z,6.68
2019-03-10T00:29:29.447Z,6.66
2019-03-10T00:30:22.928Z,6.68
2019-03-10T00:30:23.502Z,6.65
2019-03-10T00:30:24.099Z,6.58
2019-03-10T00:30:24.700Z,6.66
2019-03-10T00:30:25.300Z,6.69
2019-03-10T00:30:25.911Z,6.69
2019-03-10T00:30:26.499Z,6.59
2019-03-10T00:30:27.100Z,6.77
2019-03-10T00:31:20.582Z,6.66
2019-03-10T00:31:21.153Z,6.66
2019-03-10T00:31:21.751Z,6.65
2019-03-10T00:31:22.351Z,6.71
2019-03-10T00:31:22.951Z,6.66
2019-03-10T00:31:23.552Z,6.69
2019-03-10T00:31:24.154Z,6.68
2019-03-10T00:31:24.752Z,6.66
2019-03-10T00:32:18.235Z,6.66
2019-03-10T00:32:18.804Z,6.59
2019-03-10T00:32:19.404Z,6.61
2019-03-10T00:32:20.004Z,6.72
2019-03-10T00:32:20.605Z,6.66
2019-03-10T00:32:21.204Z,6.68
2019-03-10T00:32:21.803Z,6.66
2019-03-10T00:32:22.412Z,6.71
2019-03-10T00:33:15.891Z,6.79
2019-03-10T00:33:16.458Z,6.72
2019-03-10T00:33:17.055Z,6.71
2019-03-10T00:33:17.656Z,6.61
2019-03-10T00:33:18.256Z,6.76
2019-03-10T00:33:18.891Z,6.73
2019-03-10T00:33:19.455Z,6.73
2019-03-10T00:33:20.057Z,6.73
2019-03-10T00:34:13.542Z,6.61
2019-03-10T00:34:14.108Z,6.68
2019-03-10T00:34:16.667Z,6.76
2019-03-10T00:34:16.804Z,6.81
2019-03-10T00:34:16.821Z,6.73
2019-03-10T00:34:16.854Z,6.66
2019-03-10T00:34:17.121Z,6.61
2019-03-10T00:34:17.707Z,6.65
2019-03-10T00:35:11.190Z,6.69
2019-03-10T00:35:11.761Z,6.79
2019-03-10T00:35:12.362Z,6.68
2019-03-10T00:35:12.960Z,6.68
2019-03-10T00:35:13.560Z,6.68
2019-03-10T00:35:14.160Z,6.76
2019-03-10T00:35:14.760Z,6.71
2019-03-10T00:35:15.360Z,6.80
2019-03-10T00:36:09.864Z,6.71
2019-03-10T00:36:10.435Z,6.72
2019-03-10T00:36:11.035Z,6.66
2019-03-10T00:36:11.635Z,6.68
2019-03-10T00:36:12.236Z,6.68
2019-03-10T00:36:12.835Z,6.73
2019-03-10T00:36:13.434Z,6.71
2019-03-10T00:36:14.035Z,6.68
2019-03-10T00:37:07.517Z,6.68
2019-03-10T00:37:08.089Z,6.80
2019-03-10T00:37:08.690Z,6.72
2019-03-10T00:37:09.288Z,6.77
2019-03-10T00:37:09.888Z,6.71
2019-03-10T00:37:10.495Z,6.79
2019-03-10T00:37:11.088Z,6.77
2019-03-10T00:37:11.692Z,6.73
2019-03-10T00:38:06.192Z,6.73
2019-03-10T00:38:06.762Z,6.73
2019-03-10T00:38:07.365Z,6.77
2019-03-10T00:38:07.962Z,6.71
2019-03-10T00:38:08.565Z,6.73
2019-03-10T00:38:09.162Z,6.72
2019-03-10T00:38:09.763Z,6.76
2019-03-10T00:38:10.364Z,6.76
2019-03-10T00:39:04.868Z,6.77
2019-03-10T00:39:05.438Z,6.73
2019-03-10T00:39:06.039Z,6.77
2019-03-10T00:39:06.639Z,6.72
2019-03-10T00:39:07.248Z,6.69
2019-03-10T00:39:07.837Z,6.73
2019-03-10T00:39:08.438Z,6.77
2019-03-10T00:39:09.043Z,6.77
2019-03-10T00:40:03.544Z,6.69
2019-03-10T00:40:04.115Z,6.72
2019-03-10T00:40:04.765Z,6.73
2019-03-10T00:40:05.314Z,6.76
2019-03-10T00:40:05.915Z,6.69
2019-03-10T00:40:06.514Z,6.72
2019-03-10T00:40:07.114Z,6.72
2019-03-10T00:40:07.715Z,6.72
2019-03-10T00:41:01.195Z,6.76
2019-03-10T00:41:01.849Z,6.76
2019-03-10T00:41:02.368Z,6.72
2019-03-10T00:41:02.966Z,6.71
2019-03-10T00:41:03.567Z,6.72
2019-03-10T00:41:04.166Z,6.77
2019-03-10T00:41:04.766Z,6.72
2019-03-10T00:41:05.371Z,6.79
2019-03-10T00:41:59.872Z,6.69
2019-03-10T00:42:00.444Z,6.71
2019-03-10T00:42:01.045Z,6.83
2019-03-10T00:42:01.641Z,6.73
2019-03-10T00:42:02.245Z,6.71
2019-03-10T00:42:02.844Z,6.86
2019-03-10T00:42:03.443Z,6.71
2019-03-10T00:42:04.044Z,6.69
2019-03-10T00:42:57.526Z,6.73
2019-03-10T00:42:58.095Z,6.83
2019-03-10T00:42:58.708Z,6.73
2019-03-10T00:42:59.296Z,6.84
2019-03-10T00:42:59.896Z,6.79
2019-03-10T00:43:00.494Z,6.73
2019-03-10T00:43:01.094Z,6.81
2019-03-10T00:43:01.695Z,6.83
2019-03-10T00:43:56.198Z,6.77
2019-03-10T00:43:56.769Z,6.69
2019-03-10T00:43:57.370Z,6.79
2019-03-10T00:43:57.970Z,6.73
2019-03-10T00:43:58.571Z,6.76
2019-03-10T00:43:59.169Z,6.83
2019-03-10T00:43:59.771Z,6.77
2019-03-10T00:44:00.371Z,6.86
2019-03-10T00:44:54.874Z,6.73
2019-03-10T00:44:55.446Z,6.77
2019-03-10T00:44:56.046Z,6.87
2019-03-10T00:44:56.648Z,6.89
2019-03-10T00:44:57.246Z,6.84
2019-03-10T00:44:57.845Z,6.89
2019-03-10T00:44:58.445Z,6.76
2019-03-10T00:44:59.047Z,6.89
2019-03-10T00:45:53.550Z,6.68
2019-03-10T00:45:54.123Z,6.73
2019-03-10T00:45:54.722Z,6.73
2019-03-10T00:45:55.322Z,6.73
2019-03-10T00:45:55.922Z,6.84
2019-03-10T00:45:56.534Z,6.81
2019-03-10T00:45:57.122Z,6.84
2019-03-10T00:45:57.721Z,6.72
2019-03-10T00:46:51.204Z,6.76
2019-03-10T00:46:51.776Z,6.86
2019-03-10T00:46:52.374Z,6.79
2019-03-10T00:46:52.977Z,6.73
2019-03-10T00:46:53.574Z,6.72
2019-03-10T00:46:54.174Z,6.84
2019-03-10T00:46:54.773Z,6.83
2019-03-10T00:46:55.374Z,6.73
2019-03-10T00:47:48.857Z,6.69
2019-03-10T00:47:49.426Z,6.71
2019-03-10T00:47:50.025Z,6.79
2019-03-10T00:47:50.625Z,6.83
2019-03-10T00:47:51.226Z,6.72
2019-03-10T00:47:51.825Z,6.72
2019-03-10T00:47:52.429Z,6.72
2019-03-10T00:47:53.029Z,6.81
2019-03-10T00:48:46.506Z,6.73
2019-03-10T00:48:47.077Z,6.72
2019-03-10T00:48:47.678Z,6.76
2019-03-10T00:48:48.278Z,6.72
2019-03-10T00:48:48.881Z,6.69
2019-03-10T00:48:49.478Z,6.73
2019-03-10T00:48:50.097Z,6.69
2019-03-10T00:48:50.684Z,6.72
2019-03-10T00:49:45.181Z,6.71
2019-03-10T00:49:45.752Z,6.84
2019-03-10T00:49:46.359Z,6.72
2019-03-10T00:49:46.953Z,6.73
2019-03-10T00:49:47.553Z,6.73
2019-03-10T00:49:48.154Z,6.87
2019-03-10T00:49:48.753Z,6.79
2019-03-10T00:49:49.354Z,6.73
2019-03-10T00:50:42.836Z,6.89
2019-03-10T00:50:43.407Z,6.81
2019-03-10T00:50:44.005Z,6.79
2019-03-10T00:50:44.605Z,6.77
2019-03-10T00:50:45.208Z,6.84
2019-03-10T00:50:45.805Z,6.86
2019-03-10T00:50:46.404Z,6.81
2019-03-10T00:50:47.009Z,6.91
2019-03-10T00:51:41.509Z,6.91
2019-03-10T00:51:42.081Z,6.90
2019-03-10T00:51:42.681Z,6.94
2019-03-10T00:51:43.280Z,6.91
2019-03-10T00:51:43.880Z,6.89
2019-03-10T00:51:44.480Z,6.84
2019-03-10T00:51:45.079Z,6.89
2019-03-10T00:51:45.683Z,6.91
2019-03-10T00:52:40.201Z,6.91
2019-03-10T00:52:40.756Z,6.86
2019-03-10T00:52:41.356Z,6.89
2019-03-10T00:52:41.956Z,6.94
2019-03-10T00:52:42.562Z,6.86
2019-03-10T00:52:43.157Z,6.95
2019-03-10T00:52:43.758Z,6.86
2019-03-10T00:52:44.359Z,6.89
2019-03-10T00:53:38.861Z,6.90
2019-03-10T00:53:39.432Z,6.87
2019-03-10T00:53:40.033Z,6.86
2019-03-10T00:53:40.632Z,6.80
2019-03-10T00:53:41.232Z,6.95
2019-03-10T00:53:41.852Z,6.86
2019-03-10T00:53:42.432Z,6.84
2019-03-10T00:53:43.033Z,6.87
2019-03-10T00:54:37.535Z,6.86
2019-03-10T00:54:38.108Z,6.81
2019-03-10T00:54:38.711Z,6.91
2019-03-10T00:54:39.312Z,6.87
2019-03-10T00:54:39.909Z,6.90
2019-03-10T00:54:40.506Z,6.81
2019-03-10T00:54:41.107Z,6.90
2019-03-10T00:54:41.707Z,6.86
2019-03-10T00:55:35.189Z,6.86
2019-03-10T00:55:35.761Z,6.90
2019-03-10T00:55:36.364Z,6.87
2019-03-10T00:55:36.961Z,6.91
2019-03-10T00:55:37.592Z,6.89
2019-03-10T00:55:38.161Z,6.86
2019-03-10T00:55:38.760Z,6.87
2019-03-10T00:55:39.360Z,6.89
2019-03-10T00:56:33.863Z,6.87
2019-03-10T00:56:34.435Z,6.91
2019-03-10T00:56:35.036Z,6.83
2019-03-10T00:56:35.634Z,6.86
2019-03-10T00:56:36.234Z,6.90
2019-03-10T00:56:36.839Z,6.94
2019-03-10T00:56:37.434Z,6.84
2019-03-10T00:56:38.037Z,6.87
2019-03-10T00:57:32.538Z,6.91
2019-03-10T00:57:33.113Z,6.87
2019-03-10T00:57:33.709Z,6.90
2019-03-10T00:57:34.310Z,6.95
2019-03-10T00:57:34.908Z,6.80
2019-03-10T00:57:35.508Z,6.91
2019-03-10T00:57:36.108Z,6.84
2019-03-10T00:57:36.708Z,6.86
2019-03-10T00:58:31.214Z,6.91
2019-03-10T00:58:31.789Z,6.87
2019-03-10T00:58:32.387Z,6.86
2019-03-10T00:58:32.992Z,6.86
2019-03-10T00:58:33.589Z,6.80
2019-03-10T00:58:34.188Z,6.80
2019-03-10T00:58:34.786Z,6.89
2019-03-10T00:58:35.385Z,6.86
2019-03-10T00:59:29.889Z,6.86
2019-03-10T00:59:30.517Z,6.89
2019-03-10T00:59:31.062Z,6.86
2019-03-10T00:59:31.661Z,6.87
2019-03-10T00:59:32.261Z,6.80
2019-03-10T00:59:32.863Z,6.89
2019-03-10T00:59:33.460Z,6.89
2019-03-10T00:59:34.063Z,6.83
2019-03-10T01:00:27.543Z,6.86
2019-03-10T01:00:28.115Z,6.84
2019-03-10T01:00:28.722Z,6.84
2019-03-10T01:00:29.315Z,6.83
2019-03-10T01:00:29.917Z,6.86
2019-03-10T01:00:30.571Z,6.81
2019-03-10T01:00:31.115Z,6.83
2019-03-10T01:00:31.714Z,6.84
2019-03-10T01:01:26.217Z,6.84
2019-03-10T01:01:26.790Z,6.86
2019-03-10T01:01:27.445Z,6.84
2019-03-10T01:01:27.992Z,6.84
2019-03-10T01:01:28.590Z,6.91
2019-03-10T01:01:29.190Z,6.94
2019-03-10T01:01:29.789Z,6.87
2019-03-10T01:01:30.389Z,6.94
2019-03-10T01:02:24.894Z,6.87
2019-03-10T01:02:25.465Z,6.87
2019-03-10T01:02:26.065Z,6.91
2019-03-10T01:02:26.666Z,6.94
2019-03-10T01:02:27.267Z,6.99
2019-03-10T01:02:27.865Z,6.87
2019-03-10T01:02:28.465Z,6.90
2019-03-10T01:02:29.064Z,6.90
2019-03-10T01:03:23.568Z,6.91
2019-03-10T01:03:24.142Z,6.95
2019-03-10T01:03:24.747Z,6.95
2019-03-10T01:03:25.340Z,6.94
2019-03-10T01:03:25.941Z,6.99
2019-03-10T01:03:26.544Z,6.99
2019-03-10T01:03:27.141Z,7.02
2019-03-10T01:03:27.740Z,6.95
2019-03-10T01:04:22.247Z,6.97
2019-03-10T01:04:22.817Z,6.89
2019-03-10T01:04:23.417Z,6.98
2019-03-10T01:04:24.017Z,6.90
2019-03-10T01:04:24.621Z,6.91
2019-03-10T01:04:25.225Z,6.95
2019-03-10T01:04:25.818Z,6.95
2019-03-10T01:04:26.415Z,6.91
2019-03-10T01:05:20.929Z,6.95
2019-03-10T01:05:21.495Z,6.95
2019-03-10T01:05:22.092Z,6.98
2019-03-10T01:05:22.692Z,6.95
2019-03-10T01:05:23.294Z,6.94
2019-03-10T01:05:23.892Z,6.94
2019-03-10T01:05:24.491Z,6.97
2019-03-10T01:05:25.093Z,6.97
2019-03-10T01:06:18.575Z,6.99
2019-03-10T01:06:19.149Z,6.98
2019-03-10T01:06:19.745Z,6.95
2019-03-10T01:06:20.358Z,6.94
2019-03-10T01:06:20.943Z,6.89
2019-03-10T01:06:21.542Z,6.97
2019-03-10T01:06:22.142Z,6.94
2019-03-10T01:06:22.743Z,6.94
2019-03-10T01:07:17.248Z,6.95
2019-03-10T01:07:17.820Z,6.95
2019-03-10T01:07:18.422Z,6.90
2019-03-10T01:07:19.020Z,6.99
2019-03-10T01:07:19.622Z,7.05
2019-03-10T01:07:20.221Z,6.99
2019-03-10T01:07:20.819Z,6.99
2019-03-10T01:07:21.418Z,7.08
2019-03-10T01:08:14.901Z,6.99
2019-03-10T01:08:15.475Z,6.95
2019-03-10T01:08:16.074Z,6.97
2019-03-10T01:08:16.677Z,7.09
2019-03-10T01:08:17.273Z,6.99
2019-03-10T01:08:17.872Z,6.95
2019-03-10T01:08:18.478Z,6.99
2019-03-10T01:08:19.071Z,6.97
2019-03-10T01:09:12.554Z,7.01
2019-03-10T01:09:13.125Z,6.90
2019-03-10T01:09:13.724Z,6.95
2019-03-10T01:09:14.325Z,6.94
2019-03-10T01:09:14.924Z,6.97
2019-03-10T01:09:15.524Z,6.99
2019-03-10T01:09:16.124Z,6.99
2019-03-10T01:09:16.724Z,6.95
2019-03-10T01:10:10.205Z,7.02
2019-03-10T01:10:10.778Z,6.95
2019-03-10T01:10:11.377Z,7.01
2019-03-10T01:10:11.977Z,7.02
2019-03-10T01:10:12.576Z,7.05
2019-03-10T01:10:13.177Z,6.97
2019-03-10T01:10:13.778Z,6.99
2019-03-10T01:10:14.375Z,7.05
2019-03-10T01:11:07.856Z,6.98
2019-03-10T01:11:08.429Z,6.97
2019-03-10T01:11:09.028Z,6.97
2019-03-10T01:11:09.627Z,7.08
2019-03-10T01:11:10.227Z,6.97
2019-03-10T01:11:10.843Z,6.97
2019-03-10T01:11:11.426Z,6.99
2019-03-10T01:11:12.027Z,6.97
2019-03-10T01:12:06.530Z,7.08
2019-03-10T01:12:07.102Z,7.08
2019-03-10T01:12:07.703Z,6.98
2019-03-10T01:12:08.303Z,7.01
2019-03-10T01:12:08.905Z,7.07
2019-03-10T01:12:09.502Z,7.02
2019-03-10T01:12:10.103Z,6.98
2019-03-10T01:12:10.703Z,7.02
2019-03-10T01:13:05.206Z,7.04
2019-03-10T01:13:05.779Z,7.02
2019-03-10T01:13:06.379Z,7.01
2019-03-10T01:13:06.980Z,6.98
2019-03-10T01:13:07.578Z,7.04
2019-03-10T01:13:08.179Z,7.02
2019-03-10T01:13:08.778Z,7.04
2019-03-10T01:13:09.377Z,7.07
2019-03-10T01:14:03.884Z,6.98
2019-03-10T01:14:04.456Z,7.05
2019-03-10T01:14:05.054Z,6.99
2019-03-10T01:14:05.654Z,6.99
2019-03-10T01:14:06.254Z,7.04
2019-03-10T01:14:06.853Z,7.02
2019-03-10T01:14:07.457Z,7.04
2019-03-10T01:14:08.053Z,7.04
2019-03-10T01:15:01.536Z,7.08
2019-03-10T01:15:02.111Z,7.01
2019-03-10T01:15:02.706Z,7.04
2019-03-10T01:15:03.308Z,7.05
2019-03-10T01:15:03.907Z,7.05
2019-03-10T01:15:04.509Z,6.99
2019-03-10T01:15:05.108Z,7.04
2019-03-10T01:15:05.705Z,7.04
2019-03-10T01:15:59.186Z,7.04
2019-03-10T01:15:59.762Z,7.04
2019-03-10T01:16:00.358Z,7.05
2019-03-10T01:16:00.958Z,7.01
2019-03-10T01:16:01.558Z,7.02
2019-03-10T01:16:02.157Z,7.02
2019-03-10T01:16:02.758Z,6.99
2019-03-10T01:16:03.358Z,7.02
2019-03-10T01:16:56.838Z,7.01
2019-03-10T01:16:57.413Z,7.01
2019-03-10T01:16:58.010Z,7.13
2019-03-10T01:16:58.614Z,7.12
2019-03-10T01:16:59.209Z,7.12
2019-03-10T01:16:59.811Z,6.98
2019-03-10T01:17:00.412Z,6.97
2019-03-10T01:17:01.010Z,7.05
2019-03-10T01:17:55.512Z,7.07
2019-03-10T01:17:56.089Z,7.12
2019-03-10T01:17:56.684Z,7.04
2019-03-10T01:17:57.284Z,7.16
2019-03-10T01:17:57.885Z,7.12
2019-03-10T01:17:58.485Z,7.09
2019-03-10T01:17:59.085Z,7.16
2019-03-10T01:17:59.684Z,7.01
2019-03-10T01:18:53.165Z,7.02
2019-03-10T01:18:53.738Z,7.05
2019-03-10T01:18:54.338Z,7.09
2019-03-10T01:18:54.937Z,7.09
2019-03-10T01:18:55.537Z,7.05
2019-03-10T01:18:56.137Z,7.09
2019-03-10T01:18:56.760Z,7.12
2019-03-10T01:18:57.337Z,7.04
2019-03-10T01:19:51.839Z,7.02
2019-03-10T01:19:52.415Z,7.07
2019-03-10T01:19:53.012Z,7.09
2019-03-10T01:19:53.613Z,7.07
2019-03-10T01:19:54.214Z,7.09
2019-03-10T01:19:54.812Z,6.99
2019-03-10T01:19:55.411Z,7.16
2019-03-10T01:19:56.014Z,7.12
2019-03-10T01:20:49.492Z,7.02
2019-03-10T01:20:50.066Z,6.97
2019-03-10T01:20:50.664Z,7.15
2019-03-10T01:20:51.266Z,7.12
2019-03-10T01:20:51.864Z,7.07
2019-03-10T01:20:52.464Z,7.07
2019-03-10T01:20:53.065Z,7.08
2019-03-10T01:20:53.664Z,7.07
2019-03-10T01:21:47.145Z,7.05
2019-03-10T01:21:47.717Z,7.09
2019-03-10T01:21:48.317Z,7.09
2019-03-10T01:21:48.916Z,7.15
2019-03-10T01:21:49.517Z,7.12
2019-03-10T01:21:50.123Z,7.01
2019-03-10T01:21:50.718Z,7.13
2019-03-10T01:21:51.316Z,7.02
2019-03-10T01:22:45.819Z,7.05
2019-03-10T01:22:46.391Z,7.17
2019-03-10T01:22:46.991Z,7.04
2019-03-10T01:22:47.592Z,7.17
2019-03-10T01:22:48.192Z,7.15
2019-03-10T01:22:48.790Z,7.02
2019-03-10T01:22:49.390Z,6.97
2019-03-10T01:22:49.989Z,7.09
2019-03-10T01:23:44.496Z,7.12
2019-03-10T01:23:45.068Z,7.09
2019-03-10T01:23:45.667Z,7.17
2019-03-10T01:23:46.268Z,7.08
2019-03-10T01:23:46.868Z,7.15
2019-03-10T01:23:47.468Z,7.09
2019-03-10T01:23:48.067Z,7.07
2019-03-10T01:23:48.667Z,7.09
2019-03-10T01:24:42.147Z,7.19
2019-03-10T01:24:42.720Z,7.05
2019-03-10T01:24:43.381Z,7.07
2019-03-10T01:24:43.920Z,7.07
2019-03-10T01:24:44.522Z,7.07
2019-03-10T01:24:45.119Z,7.04
2019-03-10T01:24:45.718Z,7.13
2019-03-10T01:24:46.319Z,7.08
2019-03-10T01:25:40.823Z,7.15
2019-03-10T01:25:41.396Z,7.07
2019-03-10T01:25:41.994Z,7.08
2019-03-10T01:25:42.604Z,7.05
2019-03-10T01:25:43.195Z,7.13
2019-03-10T01:25:43.793Z,7.07
2019-03-10T01:25:44.394Z,7.16
2019-03-10T01:25:44.993Z,7.13
2019-03-10T01:26:39.498Z,7.07
2019-03-10T01:26:40.073Z,7.09
2019-03-10T01:26:40.670Z,7.12
2019-03-10T01:26:41.269Z,7.04
2019-03-10T01:26:41.872Z,7.05
2019-03-10T01:26:42.470Z,7.12
2019-03-10T01:26:43.072Z,7.04
2019-03-10T01:26:43.670Z,7.12
2019-03-10T01:27:38.173Z,7.09
2019-03-10T01:27:38.746Z,7.07
2019-03-10T01:27:39.346Z,7.13
2019-03-10T01:27:39.948Z,7.08
2019-03-10T01:27:40.552Z,7.09
2019-03-10T01:27:41.146Z,7.12
2019-03-10T01:27:41.745Z,7.16
2019-03-10T01:27:42.345Z,7.07
2019-03-10T01:28:36.849Z,7.13
2019-03-10T01:28:37.422Z,7.09
2019-03-10T01:28:38.022Z,7.13
2019-03-10T01:28:38.622Z,7.07
2019-03-10T01:28:39.221Z,7.16
2019-03-10T01:28:39.824Z,7.12
2019-03-10T01:28:40.424Z,7.05
2019-03-10T01:28:41.022Z,7.19
2019-03-10T01:29:35.525Z,7.09
2019-03-10T01:29:36.097Z,7.17
2019-03-10T01:29:36.697Z,7.19
2019-03-10T01:29:37.297Z,7.19
2019-03-10T01:29:37.897Z,7.07
2019-03-10T01:29:38.497Z,7.16
2019-03-10T01:29:39.104Z,7.16
2019-03-10T01:29:39.697Z,7.09
2019-03-10T01:30:35.264Z,7.17
2019-03-10T01:30:35.761Z,7.19
2019-03-10T01:30:36.418Z,7.07
2019-03-10T01:30:36.694Z,7.13
2019-03-10T01:30:36.944Z,7.05
2019-03-10T01:30:38.185Z,7.13
2019-03-10T01:30:38.196Z,7.09
2019-03-10T01:30:38.764Z,7.13
2019-03-10T01:31:33.796Z,7.15
2019-03-10T01:31:34.336Z,7.15
2019-03-10T01:31:34.772Z,7.15
2019-03-10T01:31:35.576Z,7.22
2019-03-10T01:31:35.692Z,7.05
2019-03-10T01:31:35.988Z,7.20
2019-03-10T01:31:36.578Z,7.17
2019-03-10T01:31:37.179Z,7.05
2019-03-10T01:32:31.246Z,7.17
2019-03-10T01:32:31.820Z,7.15
2019-03-10T01:32:32.419Z,7.17
2019-03-10T01:32:33.019Z,7.23
2019-03-10T01:32:33.626Z,7.23
2019-03-10T01:32:34.220Z,7.15
2019-03-10T01:32:34.818Z,7.19
2019-03-10T01:32:35.418Z,7.24
2019-03-10T01:33:29.920Z,7.22
2019-03-10T01:33:30.493Z,7.24
2019-03-10T01:33:31.093Z,7.23
2019-03-10T01:33:31.694Z,7.17
2019-03-10T01:33:32.294Z,7.20
2019-03-10T01:33:32.892Z,7.24
2019-03-10T01:33:33.495Z,7.19
2019-03-10T01:33:34.092Z,7.17
2019-03-10T01:34:27.574Z,7.17
2019-03-10T01:34:28.147Z,7.16
2019-03-10T01:34:28.744Z,7.23
2019-03-10T01:34:29.346Z,7.24
2019-03-10T01:34:29.945Z,7.19
2019-03-10T01:34:30.545Z,7.19
2019-03-10T01:34:31.146Z,7.20
2019-03-10T01:34:31.745Z,7.17
2019-03-10T01:35:25.224Z,7.24
2019-03-10T01:35:25.800Z,7.20
2019-03-10T01:35:26.399Z,7.17
2019-03-10T01:35:26.998Z,7.22
2019-03-10T01:35:27.601Z,7.19
2019-03-10T01:35:28.198Z,7.20
2019-03-10T01:35:28.796Z,7.19
2019-03-10T01:35:29.396Z,7.22
2019-03-10T01:36:23.900Z,7.26
2019-03-10T01:36:24.472Z,7.19
2019-03-10T01:36:25.071Z,7.20
2019-03-10T01:36:25.671Z,7.26
2019-03-10T01:36:26.272Z,7.23
2019-03-10T01:36:26.871Z,7.22
2019-03-10T01:36:27.473Z,7.20
2019-03-10T01:36:28.073Z,7.20
2019-03-10T01:37:21.554Z,7.19
2019-03-10T01:37:22.126Z,7.22
2019-03-10T01:37:22.726Z,7.20
2019-03-10T01:37:23.326Z,7.23
2019-03-10T01:37:23.929Z,7.19
2019-03-10T01:37:24.526Z,7.22
2019-03-10T01:37:25.125Z,7.26
2019-03-10T01:37:25.768Z,7.23
2019-03-10T01:38:20.228Z,7.17
2019-03-10T01:38:20.800Z,7.17
2019-03-10T01:38:21.399Z,7.24
2019-03-10T01:38:22.002Z,7.19
2019-03-10T01:38:22.602Z,7.24
2019-03-10T01:38:23.201Z,7.24
2019-03-10T01:38:23.800Z,7.20
2019-03-10T01:38:24.398Z,7.24
2019-03-10T01:39:17.880Z,7.22
2019-03-10T01:39:18.452Z,7.19
2019-03-10T01:39:19.053Z,7.27
2019-03-10T01:39:19.652Z,7.17
2019-03-10T01:39:20.252Z,7.22
2019-03-10T01:39:20.852Z,7.22
2019-03-10T01:39:21.450Z,7.20
2019-03-10T01:39:22.052Z,7.22
2019-03-10T01:40:15.534Z,7.20
2019-03-10T01:40:16.105Z,7.22
2019-03-10T01:40:16.705Z,7.24
2019-03-10T01:40:17.303Z,7.22
2019-03-10T01:40:17.904Z,7.22
2019-03-10T01:40:18.505Z,7.23
2019-03-10T01:40:19.104Z,7.24
2019-03-10T01:40:19.703Z,7.24
2019-03-10T01:41:14.207Z,7.22
2019-03-10T01:41:14.781Z,7.20
2019-03-10T01:41:15.379Z,7.23
2019-03-10T01:41:15.987Z,7.20
2019-03-10T01:41:16.580Z,7.29
2019-03-10T01:41:17.179Z,7.20
2019-03-10T01:41:17.779Z,7.20
2019-03-10T01:41:18.378Z,7.20
2019-03-10T01:42:11.859Z,7.16
2019-03-10T01:42:12.438Z,7.17
2019-03-10T01:42:13.032Z,7.17
2019-03-10T01:42:13.632Z,7.20
2019-03-10T01:42:14.236Z,7.20
2019-03-10T01:42:14.832Z,7.15
2019-03-10T01:42:15.434Z,7.20
2019-03-10T01:42:16.032Z,7.19
2019-03-10T01:43:10.538Z,7.09
2019-03-10T01:43:11.105Z,7.17
2019-03-10T01:43:11.707Z,7.17
2019-03-10T01:43:12.307Z,7.13
2019-03-10T01:43:12.905Z,7.17
2019-03-10T01:43:13.505Z,7.13
2019-03-10T01:43:14.107Z,7.22
2019-03-10T01:43:14.705Z,7.20
2019-03-10T01:44:08.187Z,7.15
2019-03-10T01:44:08.759Z,7.15
2019-03-10T01:44:09.364Z,7.23
2019-03-10T01:44:09.959Z,7.19
2019-03-10T01:44:10.561Z,7.17
2019-03-10T01:44:11.163Z,7.17
2019-03-10T01:44:11.761Z,7.23
2019-03-10T01:44:12.360Z,7.27
2019-03-10T01:45:06.863Z,7.16
2019-03-10T01:45:07.433Z,7.22
2019-03-10T01:45:08.037Z,7.19
2019-03-10T01:45:08.634Z,7.17
2019-03-10T01:45:09.233Z,7.20
2019-03-10T01:45:09.832Z,7.24
2019-03-10T01:45:10.434Z,7.19
2019-03-10T01:45:11.033Z,7.23
2019-03-10T01:46:04.513Z,7.15
2019-03-10T01:46:05.087Z,7.16
2019-03-10T01:46:05.687Z,7.23
2019-03-10T01:46:06.285Z,7.20
2019-03-10T01:46:06.886Z,7.15
2019-03-10T01:46:07.488Z,7.15
2019-03-10T01:46:08.087Z,7.02
2019-03-10T01:46:08.685Z,7.19
2019-03-10T01:47:02.165Z,7.16
2019-03-10T01:47:02.740Z,7.20
2019-03-10T01:47:03.339Z,7.19
2019-03-10T01:47:03.938Z,7.19
2019-03-10T01:47:04.538Z,7.07
2019-03-10T01:47:05.139Z,7.12
2019-03-10T01:47:05.738Z,7.17
2019-03-10T01:47:06.345Z,7.22
2019-03-10T01:47:59.818Z,7.07
2019-03-10T01:48:00.393Z,7.08
2019-03-10T01:48:00.989Z,7.13
2019-03-10T01:48:01.591Z,7.16
2019-03-10T01:48:02.191Z,7.19
2019-03-10T01:48:02.789Z,7.17
2019-03-10T01:48:03.397Z,7.15
2019-03-10T01:48:03.990Z,7.16
2019-03-10T01:48:58.493Z,7.07
2019-03-10T01:48:59.069Z,7.09
2019-03-10T01:48:59.667Z,7.13
2019-03-10T01:49:00.265Z,7.09
2019-03-10T01:49:00.864Z,7.15
2019-03-10T01:49:01.464Z,7.07
2019-03-10T01:49:02.067Z,7.13
2019-03-10T01:49:02.664Z,7.16
2019-03-10T01:49:56.144Z,7.09
2019-03-10T01:49:56.718Z,7.08
2019-03-10T01:49:57.318Z,7.07
2019-03-10T01:49:57.916Z,7.08
2019-03-10T01:49:58.517Z,7.09
2019-03-10T01:49:59.118Z,7.12
2019-03-10T01:49:59.721Z,7.09
2019-03-10T01:50:00.410Z,7.16
2019-03-10T01:50:53.797Z,7.13
2019-03-10T01:50:54.372Z,7.13
2019-03-10T01:50:54.970Z,7.09
2019-03-10T01:50:55.572Z,7.16
2019-03-10T01:50:56.170Z,7.12
2019-03-10T01:50:56.768Z,7.17
2019-03-10T01:50:57.377Z,7.13
2019-03-10T01:50:57.969Z,7.05
2019-03-10T01:51:52.471Z,7.05
2019-03-10T01:51:53.043Z,7.12
2019-03-10T01:51:53.645Z,6.99
2019-03-10T01:51:54.247Z,7.12
2019-03-10T01:51:54.844Z,7.09
2019-03-10T01:51:55.446Z,7.12
2019-03-10T01:51:56.044Z,7.16
2019-03-10T01:51:56.644Z,7.13
2019-03-10T01:52:50.123Z,7.07
2019-03-10T01:52:50.697Z,7.12
2019-03-10T01:52:51.298Z,7.08
2019-03-10T01:52:51.896Z,7.12
2019-03-10T01:52:52.504Z,7.05
2019-03-10T01:52:53.095Z,7.05
2019-03-10T01:52:53.698Z,7.07
2019-03-10T01:52:54.303Z,7.02
2019-03-10T01:53:47.775Z,7.04
2019-03-10T01:53:48.348Z,7.13
2019-03-10T01:53:48.950Z,7.13
2019-03-10T01:53:49.549Z,7.09
2019-03-10T01:53:50.148Z,7.13
2019-03-10T01:53:50.747Z,7.09
2019-03-10T01:53:51.348Z,7.15
2019-03-10T01:53:51.948Z,6.98
2019-03-10T01:54:45.429Z,6.97
2019-03-10T01:54:45.999Z,7.09
2019-03-10T01:54:46.601Z,7.17
2019-03-10T01:54:47.200Z,7.09
2019-03-10T01:54:47.800Z,7.17
2019-03-10T01:54:48.399Z,7.05
2019-03-10T01:54:49.003Z,7.17
2019-03-10T01:54:49.597Z,7.09
2019-03-10T01:55:44.103Z,7.04
2019-03-10T01:55:44.676Z,7.08
2019-03-10T01:55:45.277Z,7.05
2019-03-10T01:55:45.889Z,7.12
2019-03-10T01:55:46.479Z,6.98
2019-03-10T01:55:47.075Z,7.13
2019-03-10T01:55:47.673Z,7.12
2019-03-10T01:55:48.276Z,7.07
2019-03-10T01:56:41.758Z,7.05
2019-03-10T01:56:42.327Z,7.15
2019-03-10T01:56:42.926Z,7.13
2019-03-10T01:56:43.526Z,7.05
2019-03-10T01:56:44.126Z,7.12
2019-03-10T01:56:44.731Z,7.13
2019-03-10T01:56:45.328Z,7.09
2019-03-10T01:56:45.927Z,7.08
2019-03-10T01:57:39.409Z,7.05
2019-03-10T01:57:39.978Z,7.02
2019-03-10T01:57:40.582Z,7.15
2019-03-10T01:57:41.177Z,7.09
2019-03-10T01:57:41.777Z,7.07
2019-03-10T01:57:42.378Z,7.02
2019-03-10T01:57:42.981Z,6.98
2019-03-10T01:57:43.579Z,7.13
2019-03-10T01:58:38.081Z,7.05
2019-03-10T01:58:38.654Z,6.97
2019-03-10T01:58:39.260Z,7.07
2019-03-10T01:58:39.852Z,7.09
2019-03-10T01:58:40.456Z,7.01
2019-03-10T01:58:41.053Z,7.08
2019-03-10T01:58:41.653Z,7.05
2019-03-10T01:58:42.256Z,7.01
2019-03-10T01:59:36.757Z,6.99
2019-03-10T01:59:37.330Z,7.04
2019-03-10T01:59:37.929Z,6.98
2019-03-10T01:59:38.530Z,7.01
2019-03-10T01:59:39.131Z,7.01
2019-03-10T01:59:39.728Z,7.04
2019-03-10T01:59:40.328Z,7.08
2019-03-10T01:59:40.930Z,7.07
2019-03-10T02:00:35.432Z,7.01
2019-03-10T02:00:36.007Z,6.99
2019-03-10T02:00:36.605Z,7.02
2019-03-10T02:00:37.204Z,7.02
2019-03-10T02:00:37.807Z,7.04
2019-03-10T02:00:38.404Z,7.04
2019-03-10T02:00:39.003Z,7.07
2019-03-10T02:00:39.606Z,7.05
2019-03-10T02:01:33.087Z,7.04
2019-03-10T02:01:33.657Z,7.02
2019-03-10T02:01:34.258Z,7.05
2019-03-10T02:01:34.856Z,7.04
2019-03-10T02:01:35.457Z,7.04
2019-03-10T02:01:36.057Z,7.02
2019-03-10T02:01:36.657Z,6.97
2019-03-10T02:01:37.258Z,7.01
2019-03-10T02:02:30.738Z,7.05
2019-03-10T02:02:31.311Z,6.97
2019-03-10T02:02:31.909Z,7.04
2019-03-10T02:02:32.510Z,6.98
2019-03-10T02:02:33.109Z,7.02
2019-03-10T02:02:33.707Z,7.02
2019-03-10T02:02:34.308Z,7.02
2019-03-10T02:02:34.908Z,7.05
2019-03-10T02:03:29.412Z,7.05
2019-03-10T02:03:29.987Z,7.04
2019-03-10T02:03:30.589Z,7.04
2019-03-10T02:03:31.184Z,7.02
2019-03-10T02:03:31.783Z,7.02
2019-03-10T02:03:32.385Z,7.01
2019-03-10T02:03:32.984Z,7.05
2019-03-10T02:03:33.584Z,7.04
2019-03-10T02:04:27.579Z,7.04
2019-03-10T02:04:28.153Z,7.01
2019-03-10T02:04:28.750Z,6.99
2019-03-10T02:04:29.348Z,7.01
2019-03-10T02:04:29.947Z,7.04
2019-03-10T02:04:30.546Z,7.05
2019-03-10T02:04:31.150Z,6.99